Time;durP1;ratioP1;P1;durP2;ratioP2;P2;SDS_P1;SDS_P2;PMS_P1;PMS_P2;Temp;Humidity;BMP_temperature;BMP_pressure;BME280_temperature;BME280_humidity;BME280_pressure;Samples;Min_cycle;Max_cycle;Signal;HPM_P1;HPM_P2
2023/03/09 00:01:54;;;;;;;63.73;31.83;;;;;;;;;;5093591;28;20020;-76
2023/03/09 00:04:23;;;;;;;61.73;32.37;;;;;;;;;;5095501;28;20024;-76
2023/03/09 00:06:49;;;;;;;63.63;31.70;;;;;;;;;;5096130;28;20032;-76
2023/03/09 00:09:15;;;;;;;58.23;30.57;;;;;;;;;;5095438;28;20024;-76
2023/03/09 00:11:42;;;;;;;70.77;33.23;;;;;;;;;;5074301;28;20024;-75
2023/03/09 00:14:09;;;;;;;63.53;31.80;;;;;;;;;;5095384;28;20111;-75
2023/03/09 00:16:35;;;;;;;73.30;33.23;;;;;;;;;;5094568;28;20020;-75
2023/03/09 00:19:03;;;;;;;76.83;35.67;;;;;;;;;;5078258;28;20024;-76
2023/03/09 00:21:36;;;;;;;81.80;36.27;;;;;;;;;;5095234;28;20462;-76
2023/03/09 00:24:24;;;;;;;73.80;34.70;;;;;;;;;;5096455;28;20348;-76
2023/03/09 00:26:57;;;;;;;71.73;34.23;;;;;;;;;;5095435;28;20035;-76
2023/03/09 00:29:24;;;;;;;80.10;36.23;;;;;;;;;;5096017;28;20027;-75
2023/03/09 00:31:50;;;;;;;76.13;35.37;;;;;;;;;;5095146;28;20439;-76
2023/03/09 00:34:16;;;;;;;71.80;34.37;;;;;;;;;;5094154;28;20016;-76
2023/03/09 00:36:43;;;;;;;89.70;35.53;;;;;;;;;;5094699;28;20028;-76
2023/03/09 00:39:10;;;;;;;83.83;35.40;;;;;;;;;;5095345;28;20032;-76
2023/03/09 00:41:36;;;;;;;79.13;36.00;;;;;;;;;;5094745;28;20039;-76
2023/03/09 00:44:03;;;;;;;82.60;35.33;;;;;;;;;;5095293;28;20043;-76
2023/03/09 00:46:30;;;;;;;92.83;36.90;;;;;;;;;;5095090;28;20028;-75
2023/03/09 00:48:56;;;;;;;79.80;35.53;;;;;;;;;;5094427;28;20115;-75
2023/03/09 00:51:22;;;;;;;76.77;34.57;;;;;;;;;;5070403;28;20028;-76
2023/03/09 00:53:48;;;;;;;72.50;33.13;;;;;;;;;;5077760;28;20092;-76
2023/03/09 00:56:29;;;;;;;75.10;33.70;;;;;;;;;;5077929;28;20080;-75
2023/03/09 00:58:56;;;;;;;74.00;33.80;;;;;;;;;;5093432;28;20105;-75
2023/03/09 01:01:22;;;;;;;71.33;35.13;;;;;;;;;;5094193;28;20024;-76
2023/03/09 01:03:49;;;;;;;82.97;34.30;;;;;;;;;;5094671;28;20020;-76
2023/03/09 01:06:15;;;;;;;74.00;32.93;;;;;;;;;;5093541;28;20073;-75
2023/03/09 01:08:42;;;;;;;74.73;35.20;;;;;;;;;;5094436;28;20332;-76
2023/03/09 01:11:09;;;;;;;79.60;36.13;;;;;;;;;;5095329;28;20500;-75
2023/03/09 01:13:37;;;;;;;76.40;35.37;;;;;;;;;;5085022;28;20060;-75
2023/03/09 01:16:04;;;;;;;74.70;33.57;;;;;;;;;;5095152;28;20039;-75
2023/03/09 01:18:30;;;;;;;82.17;34.40;;;;;;;;;;5094761;28;20031;-76
2023/03/09 01:20:56;;;;;;;81.53;35.70;;;;;;;;;;5093882;28;20073;-76
2023/03/09 01:23:24;;;;;;;76.20;33.90;;;;;;;;;;5095397;28;20403;-76
2023/03/09 01:25:50;;;;;;;73.97;33.13;;;;;;;;;;5085206;28;20032;-75
2023/03/09 01:28:16;;;;;;;77.00;34.10;;;;;;;;;;5066841;28;20718;-76
2023/03/09 01:30:44;;;;;;;76.17;33.33;;;;;;;;;;5084109;28;20024;-76
2023/03/09 01:33:10;;;;;;;65.37;30.37;;;;;;;;;;5067691;28;20036;-75
2023/03/09 01:35:38;;;;;;;56.60;27.87;;;;;;;;;;5086623;28;20032;-74
2023/03/09 01:38:04;;;;;;;56.73;29.77;;;;;;;;;;5063415;28;20043;-75
2023/03/09 01:40:31;;;;;;;55.47;29.37;;;;;;;;;;5078646;28;20944;-75
2023/03/09 01:43:16;;;;;;;61.50;29.87;;;;;;;;;;5084158;28;20054;-76
2023/03/09 01:45:42;;;;;;;61.63;30.93;;;;;;;;;;5067448;28;20032;-76
2023/03/09 01:48:08;;;;;;;68.77;31.30;;;;;;;;;;5084644;28;20038;-75
2023/03/09 01:50:36;;;;;;;64.03;30.77;;;;;;;;;;5082732;28;20035;-75
2023/03/09 01:53:04;;;;;;;64.77;32.03;;;;;;;;;;5061631;28;20082;-76
2023/03/09 01:55:32;;;;;;;56.47;30.80;;;;;;;;;;5065871;28;20062;-76
2023/03/09 01:58:00;;;;;;;56.00;29.93;;;;;;;;;;5084371;28;20056;-75
2023/03/09 02:00:26;;;;;;;57.13;31.47;;;;;;;;;;5065490;28;20033;-76
2023/03/09 02:03:12;;;;;;;61.50;31.60;;;;;;;;;;5073506;28;20025;-75
2023/03/09 02:05:48;;;;;;;66.17;31.73;;;;;;;;;;5089185;28;20028;-76
2023/03/09 02:08:14;;;;;;;70.07;32.40;;;;;;;;;;5070953;28;20036;-75
2023/03/09 02:10:48;;;;;;;65.70;32.03;;;;;;;;;;5069630;28;20032;-75
2023/03/09 02:13:16;;;;;;;65.40;31.23;;;;;;;;;;5069878;28;20032;-76
2023/03/09 02:15:42;;;;;;;65.90;32.40;;;;;;;;;;5077357;28;20025;-75
2023/03/09 02:18:11;;;;;;;59.50;32.27;;;;;;;;;;5087252;28;20027;-74
2023/03/09 02:20:40;;;;;;;66.13;31.60;;;;;;;;;;5070662;28;20729;-75
2023/03/09 02:23:07;;;;;;;66.57;33.83;;;;;;;;;;5074038;28;20031;-75
2023/03/09 02:25:49;;;;;;;70.73;34.10;;;;;;;;;;5088752;28;20051;-75
2023/03/09 02:28:15;;;;;;;91.97;39.03;;;;;;;;;;5066140;28;20543;-75
2023/03/09 02:30:43;;;;;;;92.83;40.67;;;;;;;;;;5086411;28;20051;-75
2023/03/09 02:33:10;;;;;;;92.43;39.00;;;;;;;;;;5065942;28;20043;-75
2023/03/09 02:35:36;;;;;;;107.47;42.67;;;;;;;;;;5071128;28;20032;-75
2023/03/09 02:38:03;;;;;;;104.63;41.07;;;;;;;;;;5086918;28;20036;-75
2023/03/09 02:40:31;;;;;;;113.63;44.47;;;;;;;;;;5087810;28;20043;-75
2023/03/09 02:42:58;;;;;;;105.83;42.07;;;;;;;;;;5072859;28;20025;-75
2023/03/09 02:45:24;;;;;;;107.33;42.87;;;;;;;;;;5072837;28;20353;-75
2023/03/09 02:47:50;;;;;;;121.53;44.47;;;;;;;;;;5065097;28;20067;-76
2023/03/09 02:50:17;;;;;;;108.17;42.10;;;;;;;;;;5065884;28;20039;-75
2023/03/09 02:52:43;;;;;;;114.70;41.97;;;;;;;;;;5087817;28;20047;-75
2023/03/09 02:55:09;;;;;;;113.07;41.70;;;;;;;;;;5072173;28;20101;-76
2023/03/09 02:57:37;;;;;;;120.17;44.97;;;;;;;;;;5068579;28;21168;-75
2023/03/09 03:00:08;;;;;;;119.03;43.60;;;;;;;;;;5069991;28;20108;-75
2023/03/09 03:02:34;;;;;;;118.00;41.73;;;;;;;;;;5065794;28;20444;-74
2023/03/09 03:05:00;;;;;;;123.10;44.33;;;;;;;;;;5072682;28;20100;-75
2023/03/09 03:07:26;;;;;;;133.00;44.37;;;;;;;;;;5068732;28;20774;-76
2023/03/09 03:09:52;;;;;;;123.13;43.07;;;;;;;;;;5071756;28;20032;-76
2023/03/09 03:12:18;;;;;;;134.73;43.37;;;;;;;;;;5068636;28;20039;-75
2023/03/09 03:14:44;;;;;;;128.50;42.50;;;;;;;;;;5071360;28;20031;-76
2023/03/09 03:17:11;;;;;;;136.43;44.17;;;;;;;;;;5072459;28;20098;-75
2023/03/09 03:19:37;;;;;;;143.10;45.40;;;;;;;;;;5064130;28;20437;-75
2023/03/09 03:22:03;;;;;;;138.43;44.30;;;;;;;;;;5070053;28;20036;-75
2023/03/09 03:24:30;;;;;;;127.43;42.27;;;;;;;;;;5085544;28;20024;-76
2023/03/09 03:26:56;;;;;;;149.20;43.47;;;;;;;;;;5084629;28;20020;-76
2023/03/09 03:29:22;;;;;;;147.77;44.93;;;;;;;;;;5079522;28;20024;-75
2023/03/09 03:31:48;;;;;;;143.47;42.23;;;;;;;;;;5082089;28;20020;-76
2023/03/09 03:34:14;;;;;;;143.70;42.93;;;;;;;;;;5096005;28;20031;-76
2023/03/09 03:36:40;;;;;;;152.70;43.17;;;;;;;;;;5096031;28;20062;-76
2023/03/09 03:39:08;;;;;;;153.07;43.50;;;;;;;;;;5090745;28;20441;-76
2023/03/09 03:41:35;;;;;;;141.87;44.67;;;;;;;;;;5084547;28;20105;-76
2023/03/09 03:44:01;;;;;;;156.50;43.57;;;;;;;;;;5089501;28;20489;-76
2023/03/09 03:46:27;;;;;;;171.20;45.43;;;;;;;;;;5079426;28;20452;-75
2023/03/09 03:48:53;;;;;;;159.77;44.83;;;;;;;;;;5080798;28;20038;-75
2023/03/09 03:51:19;;;;;;;155.43;43.83;;;;;;;;;;5099116;28;20065;-76
2023/03/09 03:53:45;;;;;;;150.50;41.80;;;;;;;;;;5081568;28;20024;-75
2023/03/09 03:56:11;;;;;;;163.10;42.53;;;;;;;;;;5096813;28;20028;-76
2023/03/09 03:58:37;;;;;;;166.77;43.40;;;;;;;;;;5082949;28;20274;-75
2023/03/09 04:01:03;;;;;;;171.73;45.43;;;;;;;;;;5085762;28;20470;-76
2023/03/09 04:03:29;;;;;;;179.60;44.27;;;;;;;;;;5095458;28;20021;-76
2023/03/09 04:05:55;;;;;;;163.33;42.77;;;;;;;;;;5095493;28;20379;-76
2023/03/09 04:08:21;;;;;;;171.50;44.17;;;;;;;;;;5081790;28;20024;-76
2023/03/09 04:10:47;;;;;;;209.23;49.13;;;;;;;;;;5078563;28;20448;-76
2023/03/09 04:13:14;;;;;;;204.07;45.93;;;;;;;;;;5095476;28;20088;-76
2023/03/09 04:15:40;;;;;;;199.83;47.67;;;;;;;;;;5094497;28;20039;-76
2023/03/09 04:18:06;;;;;;;208.93;48.27;;;;;;;;;;5087403;28;20032;-76
2023/03/09 04:20:32;;;;;;;203.37;49.03;;;;;;;;;;5078477;28;20028;-76
2023/03/09 04:22:58;;;;;;;223.93;51.10;;;;;;;;;;5090353;28;20035;-76
2023/03/09 04:25:24;;;;;;;216.43;51.03;;;;;;;;;;5093646;28;20024;-76
2023/03/09 04:27:51;;;;;;;222.23;49.77;;;;;;;;;;5090186;28;20037;-75
2023/03/09 04:30:20;;;;;;;219.07;47.50;;;;;;;;;;5092082;28;20042;-75
2023/03/09 04:32:46;;;;;;;197.03;46.17;;;;;;;;;;5094935;28;20058;-76
2023/03/09 04:35:12;;;;;;;227.27;47.90;;;;;;;;;;5094778;28;20024;-76
2023/03/09 04:37:41;;;;;;;235.27;49.83;;;;;;;;;;5093720;28;20573;-76
2023/03/09 04:40:07;;;;;;;203.60;47.43;;;;;;;;;;5086360;28;20036;-76
2023/03/09 04:42:33;;;;;;;199.83;47.07;;;;;;;;;;5095834;28;20039;-75
2023/03/09 04:44:59;;;;;;;206.43;45.90;;;;;;;;;;5092691;28;20458;-76
2023/03/09 04:47:25;;;;;;;184.63;43.27;;;;;;;;;;5077078;28;20044;-75
2023/03/09 04:49:51;;;;;;;177.23;43.70;;;;;;;;;;5093180;28;20032;-76
2023/03/09 04:52:17;;;;;;;183.23;46.23;;;;;;;;;;5094656;28;20024;-75
2023/03/09 04:54:43;;;;;;;180.77;43.97;;;;;;;;;;5094280;28;20123;-75
2023/03/09 04:57:09;;;;;;;181.87;43.27;;;;;;;;;;5094100;28;20038;-76
2023/03/09 04:59:37;;;;;;;171.27;40.83;;;;;;;;;;5095168;28;20046;-76
2023/03/09 05:02:03;;;;;;;179.70;43.57;;;;;;;;;;5093603;28;20031;-75
2023/03/09 05:04:29;;;;;;;162.50;42.77;;;;;;;;;;5093911;28;20028;-76
2023/03/09 05:06:55;;;;;;;169.73;42.10;;;;;;;;;;5094787;28;20020;-76
2023/03/09 05:09:21;;;;;;;171.53;41.67;;;;;;;;;;5095411;28;20024;-76
2023/03/09 05:11:51;;;;;;;183.90;41.60;;;;;;;;;;5092488;28;20636;-76
2023/03/09 05:14:17;;;;;;;165.13;40.00;;;;;;;;;;5093586;28;20020;-76
2023/03/09 05:16:43;;;;;;;154.73;38.07;;;;;;;;;;5076630;28;20496;-76
2023/03/09 05:19:10;;;;;;;148.43;39.80;;;;;;;;;;5095814;28;20028;-76
2023/03/09 05:21:38;;;;;;;135.17;36.90;;;;;;;;;;5094930;28;20505;-75
2023/03/09 05:24:05;;;;;;;156.20;38.30;;;;;;;;;;5093965;28;20487;-76
2023/03/09 05:26:31;;;;;;;144.40;36.97;;;;;;;;;;5093401;28;20024;-75
2023/03/09 05:29:01;;;;;;;147.77;37.07;;;;;;;;;;5088150;28;20031;-76
2023/03/09 05:31:27;;;;;;;123.83;35.13;;;;;;;;;;5070902;28;20114;-76
2023/03/09 05:33:56;;;;;;;134.87;36.03;;;;;;;;;;5099155;28;20124;-76
2023/03/09 05:36:23;;;;;;;115.40;33.80;;;;;;;;;;5077205;28;20028;-75
2023/03/09 05:38:50;;;;;;;113.87;31.70;;;;;;;;;;5093423;28;20024;-76
2023/03/09 05:41:19;;;;;;;118.97;33.70;;;;;;;;;;5093255;28;20039;-75
2023/03/09 05:43:46;;;;;;;109.50;32.43;;;;;;;;;;5094511;28;20020;-76
2023/03/09 05:46:15;;;;;;;102.33;30.30;;;;;;;;;;5094221;28;20032;-76
2023/03/09 05:48:41;;;;;;;108.20;33.40;;;;;;;;;;5093007;28;20474;-76
2023/03/09 05:51:08;;;;;;;104.43;30.50;;;;;;;;;;5077620;28;20127;-76
2023/03/09 05:53:34;;;;;;;102.80;31.10;;;;;;;;;;5095496;28;20047;-76
2023/03/09 05:56:00;;;;;;;95.70;30.23;;;;;;;;;;5080757;28;20043;-76
2023/03/09 05:58:26;;;;;;;102.73;30.70;;;;;;;;;;5093969;28;20118;-76
2023/03/09 06:00:52;;;;;;;86.17;29.23;;;;;;;;;;5093979;28;20111;-76
2023/03/09 06:03:21;;;;;;;95.00;29.80;;;;;;;;;;5080237;28;20040;-75
2023/03/09 06:05:47;;;;;;;104.07;31.17;;;;;;;;;;5080055;28;20024;-77
2023/03/09 06:08:13;;;;;;;83.97;28.63;;;;;;;;;;5092864;28;20024;-76
2023/03/09 06:10:39;;;;;;;89.30;28.33;;;;;;;;;;5092719;28;20120;-76
2023/03/09 06:13:05;;;;;;;81.97;27.23;;;;;;;;;;5092320;28;20197;-76
2023/03/09 06:15:32;;;;;;;75.20;27.97;;;;;;;;;;5093569;28;20454;-76
2023/03/09 06:17:58;;;;;;;79.83;28.37;;;;;;;;;;5089446;28;20086;-75
2023/03/09 06:20:24;;;;;;;74.27;27.50;;;;;;;;;;5072658;28;20059;-76
2023/03/09 06:22:50;;;;;;;76.53;26.93;;;;;;;;;;5077264;28;20079;-76
2023/03/09 06:25:16;;;;;;;74.60;26.90;;;;;;;;;;5093200;28;20472;-76
2023/03/09 06:27:44;;;;;;;82.20;28.90;;;;;;;;;;5077080;28;20028;-76
2023/03/09 06:30:10;;;;;;;81.73;26.43;;;;;;;;;;5083657;28;20039;-75
2023/03/09 06:32:36;;;;;;;77.90;26.00;;;;;;;;;;5093273;28;20043;-76
2023/03/09 06:35:05;;;;;;;85.90;29.97;;;;;;;;;;5089828;28;20028;-76
2023/03/09 06:37:31;;;;;;;82.57;28.30;;;;;;;;;;5075488;28;20052;-76
2023/03/09 06:39:57;;;;;;;89.97;30.17;;;;;;;;;;5089836;28;20109;-76
2023/03/09 06:42:23;;;;;;;87.17;28.67;;;;;;;;;;5089069;28;20178;-76
2023/03/09 06:44:50;;;;;;;108.27;31.47;;;;;;;;;;5074761;28;20046;-76
2023/03/09 06:47:16;;;;;;;96.20;30.70;;;;;;;;;;5061863;28;20069;-76
2023/03/09 06:49:43;;;;;;;101.27;31.33;;;;;;;;;;5088462;28;20029;-76
2023/03/09 06:52:09;;;;;;;94.30;32.13;;;;;;;;;;5092203;28;20030;-76
2023/03/09 06:54:35;;;;;;;93.20;31.20;;;;;;;;;;5079085;28;20023;-76
2023/03/09 06:57:02;;;;;;;86.97;29.03;;;;;;;;;;5078059;28;20479;-76
2023/03/09 06:59:31;;;;;;;84.50;29.57;;;;;;;;;;5091682;28;20066;-76
2023/03/09 07:01:57;;;;;;;79.37;29.00;;;;;;;;;;5093354;28;20036;-76
2023/03/09 07:04:23;;;;;;;88.30;32.43;;;;;;;;;;5094216;28;20032;-76
2023/03/09 07:06:49;;;;;;;82.60;30.80;;;;;;;;;;5080634;28;20046;-75
2023/03/09 07:09:15;;;;;;;88.13;29.70;;;;;;;;;;5079291;28;20085;-76
2023/03/09 07:11:41;;;;;;;78.70;28.53;;;;;;;;;;5073445;28;20039;-76
2023/03/09 07:14:07;;;;;;;82.93;30.20;;;;;;;;;;5092187;28;20085;-76
2023/03/09 07:16:33;;;;;;;85.90;30.77;;;;;;;;;;5092668;28;20372;-76
2023/03/09 07:18:59;;;;;;;88.97;30.63;;;;;;;;;;5078833;28;20035;-76
2023/03/09 07:21:25;;;;;;;83.30;29.27;;;;;;;;;;5073059;28;20413;-76
2023/03/09 07:23:51;;;;;;;79.77;31.17;;;;;;;;;;5092868;28;20103;-76
2023/03/09 07:26:19;;;;;;;85.43;30.97;;;;;;;;;;5071450;28;20162;-75
2023/03/09 07:28:48;;;;;;;81.07;29.90;;;;;;;;;;5063236;28;20057;-75
2023/03/09 07:31:14;;;;;;;64.40;25.60;;;;;;;;;;5086776;28;20040;-76
2023/03/09 07:33:40;;;;;;;76.53;29.23;;;;;;;;;;5071606;28;21594;-76
2023/03/09 07:36:07;;;;;;;78.80;29.53;;;;;;;;;;5087369;28;20044;-74
2023/03/09 07:38:36;;;;;;;68.10;27.70;;;;;;;;;;5086287;28;20032;-75
2023/03/09 07:41:02;;;;;;;66.43;27.43;;;;;;;;;;5068481;28;20130;-76
2023/03/09 07:43:30;;;;;;;56.13;24.70;;;;;;;;;;5086359;28;20035;-76
2023/03/09 07:45:56;;;;;;;60.40;25.03;;;;;;;;;;5081969;28;20119;-76
2023/03/09 07:48:23;;;;;;;57.67;25.13;;;;;;;;;;5084703;28;20467;-75
2023/03/09 07:50:57;;;;;;;58.23;24.53;;;;;;;;;;5069360;28;20027;-76
2023/03/09 07:53:23;;;;;;;51.40;23.07;;;;;;;;;;5076215;28;20097;-76
2023/03/09 07:55:56;;;;;;;52.00;22.93;;;;;;;;;;5087506;28;20028;-76
2023/03/09 07:58:22;;;;;;;;;;;;;;;;;;5069732;28;20033;-76
2023/03/09 08:00:48;;;;;;;44.50;19.83;;;;;;;;;;5071403;28;19920;-76
2023/03/09 08:03:14;;;;;;;47.00;22.47;;;;;;;;;;5070162;28;20163;-76
2023/03/09 08:05:40;;;;;;;48.23;23.63;;;;;;;;;;5085179;28;20024;-77
2023/03/09 08:08:07;;;;;;;43.30;22.63;;;;;;;;;;5074802;28;20086;-75
2023/03/09 08:10:34;;;;;;;43.07;21.57;;;;;;;;;;5069781;28;20028;-76
2023/03/09 08:13:00;;;;;;;42.03;21.60;;;;;;;;;;5085961;28;20092;-76
2023/03/09 08:15:26;;;;;;;42.10;21.83;;;;;;;;;;5064242;28;20132;-76
2023/03/09 08:17:52;;;;;;;41.80;21.30;;;;;;;;;;5074261;28;20024;-76
2023/03/09 08:20:18;;;;;;;47.67;23.37;;;;;;;;;;5078566;28;20139;-76
2023/03/09 08:22:49;;;;;;;48.93;21.83;;;;;;;;;;5081999;28;20039;-75
2023/03/09 08:25:15;;;;;;;47.73;22.73;;;;;;;;;;5079412;28;20020;-76
2023/03/09 08:27:42;;;;;;;39.00;20.37;;;;;;;;;;5068219;28;20024;-76
2023/03/09 08:30:09;;;;;;;42.73;21.43;;;;;;;;;;5072623;28;20108;-76
2023/03/09 08:32:38;;;;;;;38.20;19.37;;;;;;;;;;5068454;28;20028;-76
2023/03/09 08:35:04;;;;;;;39.13;20.50;;;;;;;;;;5069355;28;20024;-76
2023/03/09 08:37:30;;;;;;;39.53;20.53;;;;;;;;;;5069177;28;20032;-77
2023/03/09 08:39:56;;;;;;;42.50;21.17;;;;;;;;;;5089544;28;20028;-75
2023/03/09 08:42:22;;;;;;;41.80;21.77;;;;;;;;;;5086255;28;20024;-76
2023/03/09 08:44:48;;;;;;;34.93;18.27;;;;;;;;;;5086113;28;20020;-76
2023/03/09 08:47:17;;;;;;;36.00;19.00;;;;;;;;;;5083325;28;20027;-76
2023/03/09 08:49:43;;;;;;;31.53;18.43;;;;;;;;;;5072075;28;20470;-76
2023/03/09 08:52:09;;;;;;;25.37;14.93;;;;;;;;;;5088419;28;20152;-76
2023/03/09 08:54:35;;;;;;;25.80;14.30;;;;;;;;;;5070235;28;20032;-76
2023/03/09 08:57:01;;;;;;;26.83;14.33;;;;;;;;;;5069053;28;20055;-76
2023/03/09 08:59:27;;;;;;;26.90;14.23;;;;;;;;;;5087643;28;20099;-76
2023/03/09 09:01:53;;;;;;;24.90;14.07;;;;;;;;;;5084740;28;20076;-76
2023/03/09 09:04:21;;;;;;;20.67;12.63;;;;;;;;;;5073281;28;20020;-76
2023/03/09 09:06:47;;;;;;;26.33;14.97;;;;;;;;;;5066194;28;20036;-76
2023/03/09 09:09:13;;;;;;;22.90;12.13;;;;;;;;;;5087439;28;20123;-76
2023/03/09 09:11:39;;;;;;;21.87;13.97;;;;;;;;;;5069915;28;20397;-76
2023/03/09 09:14:05;;;;;;;21.90;12.77;;;;;;;;;;5072133;28;20028;-76
2023/03/09 09:16:31;;;;;;;21.90;13.27;;;;;;;;;;5085423;28;20028;-75
2023/03/09 09:18:57;;;;;;;19.73;12.47;;;;;;;;;;5063247;28;20024;-77
2023/03/09 09:21:23;;;;;;;25.77;14.10;;;;;;;;;;5071065;28;20039;-77
2023/03/09 09:23:49;;;;;;;23.87;14.57;;;;;;;;;;5066949;28;20028;-77
2023/03/09 09:26:18;;;;;;;23.90;13.93;;;;;;;;;;5066768;28;20036;-75
2023/03/09 09:28:45;;;;;;;25.33;14.30;;;;;;;;;;5077389;28;20029;-76
2023/03/09 09:31:12;;;;;;;27.30;15.23;;;;;;;;;;5095602;28;20028;-76
2023/03/09 09:33:39;;;;;;;19.50;11.70;;;;;;;;;;5070974;28;20024;-76
2023/03/09 09:36:09;;;;;;;17.83;11.47;;;;;;;;;;5077695;28;20032;-76
2023/03/09 09:38:35;;;;;;;20.13;11.47;;;;;;;;;;5095297;28;20032;-76
2023/03/09 09:41:25;;;;;;;18.93;10.57;;;;;;;;;;5094767;28;20020;-76
2023/03/09 09:43:54;;;;;;;19.50;11.60;;;;;;;;;;5083473;28;20063;-75
2023/03/09 09:46:21;;;;;;;15.47;9.90;;;;;;;;;;5076700;28;20028;-76
2023/03/09 09:48:48;;;;;;;14.30;9.80;;;;;;;;;;5094465;28;20333;-76
2023/03/09 09:51:19;;;;;;;15.87;10.70;;;;;;;;;;5094807;28;20060;-76
2023/03/09 09:53:45;;;;;;;15.20;10.88;;;;;;;;;;5094610;28;20085;-75
2023/03/09 09:56:15;;;;;;;16.70;11.10;;;;;;;;;;5094471;28;20028;-76
2023/03/09 09:59:02;;;;;;;19.10;11.57;;;;;;;;;;5095386;28;20031;-76
2023/03/09 10:01:35;;;;;;;15.73;10.27;;;;;;;;;;5062659;28;20437;-76
2023/03/09 10:04:07;;;;;;;20.33;11.70;;;;;;;;;;5077923;28;20024;-76
2023/03/09 10:06:33;;;;;;;17.70;12.03;;;;;;;;;;5065836;28;20056;-76
2023/03/09 10:09:06;;;;;;;17.33;10.50;;;;;;;;;;5083376;28;20035;-76
2023/03/09 10:11:35;;;;;;;17.70;11.00;;;;;;;;;;5073572;28;20060;-75
2023/03/09 10:14:11;;;;;;;14.93;10.60;;;;;;;;;;5094171;28;20398;-75
2023/03/09 10:16:44;;;;;;;12.67;9.40;;;;;;;;;;5078335;28;20020;-76
2023/03/09 10:19:26;;;;;;;22.33;11.87;;;;;;;;;;5094009;28;20042;-76
2023/03/09 10:21:55;;;;;;;13.75;9.75;;;;;;;;;;5083865;28;20024;-76
2023/03/09 10:24:23;;;;;;;16.60;11.47;;;;;;;;;;5098761;28;20451;-76
2023/03/09 10:26:52;;;;;;;22.70;14.67;;;;;;;;;;5098857;28;20036;-76
2023/03/09 10:29:21;;;;;;;14.77;10.07;;;;;;;;;;5092156;28;20330;-75
2023/03/09 10:31:53;;;;;;;16.20;10.93;;;;;;;;;;5090731;28;20462;-76
2023/03/09 10:34:24;;;;;;;13.80;9.57;;;;;;;;;;5097046;28;20075;-75
2023/03/09 10:36:58;;;;;;;13.25;9.13;;;;;;;;;;5068284;28;20049;-75
2023/03/09 10:39:26;;;;;;;11.83;7.47;;;;;;;;;;5096797;28;20039;-76
2023/03/09 10:41:55;;;;;;;10.13;6.87;;;;;;;;;;5092111;28;20036;-76
2023/03/09 10:44:22;;;;;;;9.47;6.30;;;;;;;;;;5098094;28;20043;-76
2023/03/09 10:46:59;;;;;;;12.00;7.10;;;;;;;;;;5082508;28;20336;-75
2023/03/09 10:49:25;;;;;;;12.83;8.03;;;;;;;;;;5077539;28;20020;-75
2023/03/09 10:52:00;;;;;;;13.57;7.40;;;;;;;;;;5094125;28;20114;-75
2023/03/09 10:54:27;;;;;;;12.23;8.13;;;;;;;;;;5093857;28;20078;-75
2023/03/09 10:56:53;;;;;;;14.07;9.60;;;;;;;;;;5094363;28;20037;-76
2023/03/09 10:59:23;;;;;;;14.77;10.23;;;;;;;;;;5076012;28;20032;-74
2023/03/09 11:01:51;;;;;;;13.10;9.80;;;;;;;;;;5083174;28;20021;-75
2023/03/09 11:04:23;;;;;;;14.97;9.47;;;;;;;;;;5097412;28;20367;-75
2023/03/09 11:06:50;;;;;;;12.55;8.77;;;;;;;;;;5084374;28;20101;-75
2023/03/09 11:09:39;;;;;;;15.37;10.40;;;;;;;;;;5098323;28;20024;-74
2023/03/09 11:12:09;;;;;;;13.83;8.97;;;;;;;;;;5079828;28;20035;-74
2023/03/09 11:14:41;;;;;;;13.47;9.40;;;;;;;;;;5085999;28;20024;-75
2023/03/09 11:17:24;;;;;;;16.75;10.70;;;;;;;;;;5093925;28;20345;-76
2023/03/09 11:19:49;;;;;;;11.90;8.18;;;;;;;;;;5093230;28;20034;-74
2023/03/09 11:22:16;;;;;;;13.73;8.40;;;;;;;;;;5093851;28;20028;-76
2023/03/09 11:24:46;;;;;;;12.03;8.13;;;;;;;;;;5095865;28;20024;-74
2023/03/09 11:27:27;;;;;;;10.53;7.83;;;;;;;;;;5095795;28;20452;-76
2023/03/09 11:29:57;;;;;;;12.33;8.17;;;;;;;;;;5093868;28;20044;-76
2023/03/09 11:32:23;;;;;;;11.67;8.90;;;;;;;;;;5096579;28;20489;-75
2023/03/09 11:34:50;;;;;;;13.67;9.60;;;;;;;;;;5092217;28;20020;-75
2023/03/09 11:37:22;;;;;;;15.40;8.80;;;;;;;;;;5093092;28;20039;-76
2023/03/09 11:39:52;;;;;;;13.93;8.57;;;;;;;;;;5090697;28;20074;-75
2023/03/09 11:42:29;;;;;;;10.67;7.93;;;;;;;;;;5094958;28;20028;-75
2023/03/09 11:44:57;;;;;;;14.03;8.87;;;;;;;;;;5080625;28;20465;-74
2023/03/09 11:47:30;;;;;;;12.63;9.03;;;;;;;;;;5094682;28;20020;-74
2023/03/09 11:49:57;;;;;;;14.13;8.43;;;;;;;;;;5094866;28;20030;-74
2023/03/09 11:52:29;;;;;;;14.27;9.90;;;;;;;;;;5076257;28;20089;-74
2023/03/09 11:54:57;;;;;;;15.47;10.20;;;;;;;;;;5077992;28;20055;-74
2023/03/09 11:57:23;;;;;;;13.43;9.97;;;;;;;;;;5074550;28;20497;-78
2023/03/09 12:00:03;;;;;;;15.33;10.23;;;;;;;;;;5072065;28;20036;-74
2023/03/09 12:02:35;;;;;;;17.77;10.77;;;;;;;;;;5078644;28;20020;-76
2023/03/09 12:05:02;;;;;;;15.02;8.82;;;;;;;;;;5096721;28;20078;-75
2023/03/09 12:07:41;;;;;;;15.80;9.53;;;;;;;;;;5078703;28;20020;-75
2023/03/09 12:10:07;;;;;;;16.33;10.77;;;;;;;;;;5095743;28;20051;-75
2023/03/09 12:12:44;;;;;;;14.00;10.20;;;;;;;;;;5096384;28;20032;-75
2023/03/09 12:15:13;;;;;;;19.00;11.87;;;;;;;;;;5059559;28;20041;-75
2023/03/09 12:17:43;;;;;;;15.77;10.40;;;;;;;;;;5095137;28;20028;-75
2023/03/09 12:20:19;;;;;;;19.13;12.57;;;;;;;;;;5092871;28;20063;-75
2023/03/09 12:22:45;;;;;;;18.60;12.20;;;;;;;;;;5095274;28;20074;-76
2023/03/09 12:25:18;;;;;;;19.90;12.20;;;;;;;;;;5095309;28;20035;-76
2023/03/09 12:27:53;;;;;;;19.07;12.37;;;;;;;;;;5061709;28;20029;-76
2023/03/09 12:30:19;;;;;;;17.63;12.00;;;;;;;;;;5081440;28;20060;-76
2023/03/09 12:32:45;;;;;;;23.47;14.23;;;;;;;;;;5092400;28;20683;-76
2023/03/09 12:35:13;;;;;;;21.07;13.83;;;;;;;;;;5090745;28;20036;-77
2023/03/09 12:37:40;;;;;;;15.13;11.47;;;;;;;;;;5075752;28;20042;-77
2023/03/09 12:40:16;;;;;;;20.03;11.63;;;;;;;;;;5080786;28;20036;-76
2023/03/09 12:42:43;;;;;;;22.40;13.63;;;;;;;;;;5074095;28;20028;-76
2023/03/09 12:45:11;;;;;;;19.33;13.83;;;;;;;;;;5087490;28;20033;-77
2023/03/09 12:47:40;;;;;;;19.23;12.83;;;;;;;;;;5074786;28;20020;-76
2023/03/09 12:50:21;;;;;;;17.17;12.57;;;;;;;;;;5076597;28;20035;-76
2023/03/09 12:52:47;;;;;;;17.30;11.70;;;;;;;;;;5074208;28;20124;-77
2023/03/09 12:55:16;;;;;;;23.40;17.73;;;;;;;;;;5073727;28;20108;-77
2023/03/09 12:57:42;;;;;;;24.53;17.33;;;;;;;;;;5080761;28;20020;-77
2023/03/09 13:00:18;;;;;;;23.37;17.77;;;;;;;;;;5078038;28;20031;-76
2023/03/09 13:02:48;;;;;;;25.13;17.80;;;;;;;;;;5078406;28;20024;-76
2023/03/09 13:05:22;;;;;;;20.57;14.10;;;;;;;;;;5096177;28;20020;-76
2023/03/09 13:08:18;;;;;;;19.83;14.07;;;;;;;;;;5063813;28;20031;-76
2023/03/09 13:10:44;;;;;;;20.53;13.70;;;;;;;;;;5048488;28;20115;-76
2023/03/09 13:13:31;;;;;;;18.53;13.40;;;;;;;;;;5087935;28;20078;-76
2023/03/09 13:16:16;;;;;;;19.80;14.13;;;;;;;;;;5095737;28;20032;-76
2023/03/09 13:18:42;;;;;;;20.40;14.20;;;;;;;;;;5094956;28;20024;-76
2023/03/09 13:21:26;;;;;;;19.10;13.60;;;;;;;;;;5095158;28;20090;-76
2023/03/09 13:23:53;;;;;;;19.40;14.63;;;;;;;;;;5089594;28;20024;-76
2023/03/09 13:26:19;;;;;;;21.43;15.27;;;;;;;;;;5082517;28;20117;-76
2023/03/09 13:28:47;;;;;;;21.23;14.70;;;;;;;;;;5083899;28;20032;-75
2023/03/09 13:31:27;;;;;;;21.47;14.80;;;;;;;;;;5069551;28;20124;-76
2023/03/09 13:33:53;;;;;;;20.63;14.13;;;;;;;;;;5064209;28;20047;-75
2023/03/09 13:36:23;;;;;;;16.53;12.40;;;;;;;;;;5084440;28;20046;-76
2023/03/09 13:39:10;;;;;;;20.33;14.43;;;;;;;;;;5062544;28;20028;-76
2023/03/09 13:41:37;;;;;;;21.63;14.93;;;;;;;;;;5067062;28;20897;-75
2023/03/09 13:44:04;;;;;;;21.93;14.63;;;;;;;;;;5063570;28;20126;-76
2023/03/09 13:46:35;;;;;;;24.23;15.30;;;;;;;;;;5068423;28;20055;-75
2023/03/09 13:49:06;;;;;;;24.93;16.47;;;;;;;;;;5081078;28;20065;-75
2023/03/09 13:51:32;;;;;;;23.20;16.70;;;;;;;;;;5064852;28;20025;-75
2023/03/09 13:53:59;;;;;;;22.70;16.77;;;;;;;;;;5063957;28;21489;-76
2023/03/09 13:56:25;;;;;;;21.00;15.50;;;;;;;;;;5085042;28;20039;-75
2023/03/09 13:58:52;;;;;;;25.33;15.60;;;;;;;;;;5064138;28;20097;-74
2023/03/09 14:01:20;;;;;;;21.63;15.37;;;;;;;;;;5071524;28;20475;-74
2023/03/09 14:03:49;;;;;;;24.43;16.67;;;;;;;;;;5086371;28;20111;-75
2023/03/09 14:06:20;;;;;;;21.70;14.40;;;;;;;;;;5066722;28;20039;-74
2023/03/09 14:08:49;;;;;;;20.30;15.47;;;;;;;;;;5067005;28;20035;-75
2023/03/09 14:11:21;;;;;;;22.33;16.33;;;;;;;;;;5065118;28;20038;-76
2023/03/09 14:13:55;;;;;;;24.42;15.70;;;;;;;;;;5084480;28;20024;-76
2023/03/09 14:16:21;;;;;;;28.30;19.27;;;;;;;;;;5085877;28;20036;-76
2023/03/09 14:18:51;;;;;;;30.17;18.70;;;;;;;;;;5085076;28;20028;-76
2023/03/09 14:21:25;;;;;;;25.63;17.20;;;;;;;;;;5068144;28;20024;-76
2023/03/09 14:23:52;;;;;;;25.47;16.87;;;;;;;;;;5064334;28;20043;-76